sensor_id;sensor_type;location;lat;lon;timestamp;P1;durP1;ratioP1;P2;durP2;ratioP2
44774;SDS011;31340;51.402;0.016;2023-04-03T00:01:12;8.77;;;2.35;;
44774;SDS011;31340;51.402;0.016;2023-04-03T00:03:40;14.57;;;2.72;;
44774;SDS011;31340;51.402;0.016;2023-04-03T00:08:39;9.00;;;2.38;;
44774;SDS011;31340;51.402;0.016;2023-04-03T00:11:07;12.95;;;2.53;;
44774;SDS011;31340;51.402;0.016;2023-04-03T00:13:36;18.73;;;2.55;;
44774;SDS011;31340;51.402;0.016;2023-04-03T00:16:04;18.45;;;3.20;;
44774;SDS011;31340;51.402;0.016;2023-04-03T00:18:33;17.58;;;3.60;;
44774;SDS011;31340;51.402;0.016;2023-04-03T00:21:01;18.40;;;3.25;;
44774;SDS011;31340;51.402;0.016;2023-04-03T00:23:29;12.32;;;2.35;;
44774;SDS011;31340;51.402;0.016;2023-04-03T00:25:56;13.70;;;2.17;;
44774;SDS011;31340;51.402;0.016;2023-04-03T00:28:24;13.98;;;2.63;;
44774;SDS011;31340;51.402;0.016;2023-04-03T00:30:52;9.50;;;2.65;;
44774;SDS011;31340;51.402;0.016;2023-04-03T00:33:20;13.40;;;3.08;;
44774;SDS011;31340;51.402;0.016;2023-04-03T00:35:48;8.50;;;2.10;;
44774;SDS011;31340;51.402;0.016;2023-04-03T00:38:17;9.45;;;2.22;;
44774;SDS011;31340;51.402;0.016;2023-04-03T00:40:46;9.63;;;2.28;;
44774;SDS011;31340;51.402;0.016;2023-04-03T00:43:16;6.30;;;2.28;;
44774;SDS011;31340;51.402;0.016;2023-04-03T00:45:49;14.30;;;2.70;;
44774;SDS011;31340;51.402;0.016;2023-04-03T00:48:26;14.02;;;2.10;;
44774;SDS011;31340;51.402;0.016;2023-04-03T00:51:16;10.68;;;2.60;;
44774;SDS011;31340;51.402;0.016;2023-04-03T00:53:50;10.38;;;2.00;;
44774;SDS011;31340;51.402;0.016;2023-04-03T00:56:23;15.70;;;2.60;;
44774;SDS011;31340;51.402;0.016;2023-04-03T01:01:24;7.72;;;2.22;;
44774;SDS011;31340;51.402;0.016;2023-04-03T01:03:54;10.93;;;2.78;;
44774;SDS011;31340;51.402;0.016;2023-04-03T01:06:25;9.82;;;2.13;;
44774;SDS011;31340;51.402;0.016;2023-04-03T01:09:00;10.77;;;2.05;;
44774;SDS011;31340;51.402;0.016;2023-04-03T01:11:28;5.70;;;2.53;;
44774;SDS011;31340;51.402;0.016;2023-04-03T01:13:55;12.02;;;2.55;;
44774;SDS011;31340;51.402;0.016;2023-04-03T01:16:24;10.63;;;2.53;;
44774;SDS011;31340;51.402;0.016;2023-04-03T01:18:52;13.35;;;2.58;;
44774;SDS011;31340;51.402;0.016;2023-04-03T01:21:47;10.80;;;2.33;;
44774;SDS011;31340;51.402;0.016;2023-04-03T01:24:22;10.93;;;3.08;;
44774;SDS011;31340;51.402;0.016;2023-04-03T01:26:55;12.20;;;2.65;;
44774;SDS011;31340;51.402;0.016;2023-04-03T01:29:22;16.80;;;3.92;;
44774;SDS011;31340;51.402;0.016;2023-04-03T01:31:51;11.88;;;3.00;;
44774;SDS011;31340;51.402;0.016;2023-04-03T01:34:27;13.18;;;2.67;;
44774;SDS011;31340;51.402;0.016;2023-04-03T01:36:55;18.58;;;2.90;;
44774;SDS011;31340;51.402;0.016;2023-04-03T01:39:23;10.10;;;2.50;;
44774;SDS011;31340;51.402;0.016;2023-04-03T01:41:51;13.70;;;2.53;;
44774;SDS011;31340;51.402;0.016;2023-04-03T01:44:29;14.40;;;2.70;;
44774;SDS011;31340;51.402;0.016;2023-04-03T01:46:57;12.45;;;3.00;;
44774;SDS011;31340;51.402;0.016;2023-04-03T01:49:26;11.75;;;2.47;;
44774;SDS011;31340;51.402;0.016;2023-04-03T01:51:55;12.05;;;3.15;;
44774;SDS011;31340;51.402;0.016;2023-04-03T01:54:22;11.65;;;2.80;;
44774;SDS011;31340;51.402;0.016;2023-04-03T01:56:50;12.48;;;2.88;;
44774;SDS011;31340;51.402;0.016;2023-04-03T01:59:19;12.20;;;3.50;;
44774;SDS011;31340;51.402;0.016;2023-04-03T02:01:46;12.07;;;2.65;;
44774;SDS011;31340;51.402;0.016;2023-04-03T02:04:14;13.57;;;2.80;;
44774;SDS011;31340;51.402;0.016;2023-04-03T02:06:41;10.05;;;2.47;;
44774;SDS011;31340;51.402;0.016;2023-04-03T02:09:12;10.20;;;2.50;;
44774;SDS011;31340;51.402;0.016;2023-04-03T02:11:42;13.00;;;2.30;;
44774;SDS011;31340;51.402;0.016;2023-04-03T02:14:10;19.33;;;3.80;;
44774;SDS011;31340;51.402;0.016;2023-04-03T02:16:38;8.27;;;2.30;;
44774;SDS011;31340;51.402;0.016;2023-04-03T02:19:05;11.52;;;2.78;;
44774;SDS011;31340;51.402;0.016;2023-04-03T02:21:33;16.63;;;2.60;;
44774;SDS011;31340;51.402;0.016;2023-04-03T02:24:00;14.52;;;2.63;;
44774;SDS011;31340;51.402;0.016;2023-04-03T02:26:28;13.25;;;2.50;;
44774;SDS011;31340;51.402;0.016;2023-04-03T02:28:55;12.32;;;2.42;;
44774;SDS011;31340;51.402;0.016;2023-04-03T02:31:23;11.13;;;2.95;;
44774;SDS011;31340;51.402;0.016;2023-04-03T02:33:52;7.20;;;2.53;;
44774;SDS011;31340;51.402;0.016;2023-04-03T02:36:19;10.80;;;2.60;;
44774;SDS011;31340;51.402;0.016;2023-04-03T02:38:52;9.95;;;2.50;;
44774;SDS011;31340;51.402;0.016;2023-04-03T02:41:19;8.75;;;2.53;;
44774;SDS011;31340;51.402;0.016;2023-04-03T02:43:49;10.18;;;2.75;;
44774;SDS011;31340;51.402;0.016;2023-04-03T02:46:17;14.95;;;2.60;;
44774;SDS011;31340;51.402;0.016;2023-04-03T02:48:44;12.98;;;2.58;;
44774;SDS011;31340;51.402;0.016;2023-04-03T02:51:12;9.23;;;2.25;;
44774;SDS011;31340;51.402;0.016;2023-04-03T02:53:40;12.82;;;2.72;;
44774;SDS011;31340;51.402;0.016;2023-04-03T02:56:13;11.30;;;2.90;;
44774;SDS011;31340;51.402;0.016;2023-04-03T02:58:41;8.57;;;2.53;;
44774;SDS011;31340;51.402;0.016;2023-04-03T03:01:09;7.25;;;2.13;;
44774;SDS011;31340;51.402;0.016;2023-04-03T03:03:37;9.68;;;2.55;;
44774;SDS011;31340;51.402;0.016;2023-04-03T03:06:10;8.90;;;2.42;;
44774;SDS011;31340;51.402;0.016;2023-04-03T03:08:39;12.02;;;3.05;;
44774;SDS011;31340;51.402;0.016;2023-04-03T03:11:07;11.45;;;2.58;;
44774;SDS011;31340;51.402;0.016;2023-04-03T03:13:35;21.38;;;4.57;;
44774;SDS011;31340;51.402;0.016;2023-04-03T03:16:03;10.50;;;2.22;;
44774;SDS011;31340;51.402;0.016;2023-04-03T03:18:32;11.43;;;2.75;;
44774;SDS011;31340;51.402;0.016;2023-04-03T03:21:02;15.20;;;3.22;;
44774;SDS011;31340;51.402;0.016;2023-04-03T03:23:31;12.60;;;2.30;;
44774;SDS011;31340;51.402;0.016;2023-04-03T03:26:03;18.08;;;2.88;;
44774;SDS011;31340;51.402;0.016;2023-04-03T03:28:34;8.90;;;2.20;;
44774;SDS011;31340;51.402;0.016;2023-04-03T03:31:04;12.13;;;2.72;;
44774;SDS011;31340;51.402;0.016;2023-04-03T03:33:34;8.23;;;2.45;;
44774;SDS011;31340;51.402;0.016;2023-04-03T03:36:01;12.93;;;3.17;;
44774;SDS011;31340;51.402;0.016;2023-04-03T03:38:29;11.10;;;2.90;;
44774;SDS011;31340;51.402;0.016;2023-04-03T03:40:58;10.45;;;2.35;;
44774;SDS011;31340;51.402;0.016;2023-04-03T03:43:26;13.30;;;2.70;;
44774;SDS011;31340;51.402;0.016;2023-04-03T03:45:54;13.50;;;2.28;;
44774;SDS011;31340;51.402;0.016;2023-04-03T03:48:24;9.95;;;2.28;;
44774;SDS011;31340;51.402;0.016;2023-04-03T03:50:51;6.72;;;2.20;;
44774;SDS011;31340;51.402;0.016;2023-04-03T03:53:23;12.90;;;2.90;;
44774;SDS011;31340;51.402;0.016;2023-04-03T03:55:53;15.77;;;3.22;;
44774;SDS011;31340;51.402;0.016;2023-04-03T03:58:24;10.80;;;3.20;;
44774;SDS011;31340;51.402;0.016;2023-04-03T04:00:51;9.48;;;2.72;;
44774;SDS011;31340;51.402;0.016;2023-04-03T04:03:19;13.52;;;2.75;;
44774;SDS011;31340;51.402;0.016;2023-04-03T04:05:49;7.47;;;2.60;;
44774;SDS011;31340;51.402;0.016;2023-04-03T04:08:17;12.48;;;2.83;;
44774;SDS011;31340;51.402;0.016;2023-04-03T04:10:46;8.82;;;2.83;;
44774;SDS011;31340;51.402;0.016;2023-04-03T04:13:15;9.82;;;3.35;;
44774;SDS011;31340;51.402;0.016;2023-04-03T04:15:44;11.18;;;2.67;;
44774;SDS011;31340;51.402;0.016;2023-04-03T04:18:13;11.10;;;3.15;;
44774;SDS011;31340;51.402;0.016;2023-04-03T04:20:44;17.35;;;3.70;;
44774;SDS011;31340;51.402;0.016;2023-04-03T04:23:13;12.75;;;4.15;;
44774;SDS011;31340;51.402;0.016;2023-04-03T04:25:43;11.68;;;2.85;;
44774;SDS011;31340;51.402;0.016;2023-04-03T04:28:13;14.30;;;3.03;;
44774;SDS011;31340;51.402;0.016;2023-04-03T04:30:41;14.15;;;2.88;;
44774;SDS011;31340;51.402;0.016;2023-04-03T04:33:09;9.38;;;2.70;;
44774;SDS011;31340;51.402;0.016;2023-04-03T04:35:38;12.73;;;3.00;;
44774;SDS011;31340;51.402;0.016;2023-04-03T04:38:06;6.63;;;2.53;;
44774;SDS011;31340;51.402;0.016;2023-04-03T04:40:35;10.27;;;3.00;;
44774;SDS011;31340;51.402;0.016;2023-04-03T04:43:04;9.32;;;3.17;;
44774;SDS011;31340;51.402;0.016;2023-04-03T04:45:33;10.70;;;2.72;;
44774;SDS011;31340;51.402;0.016;2023-04-03T04:48:01;19.98;;;3.30;;
44774;SDS011;31340;51.402;0.016;2023-04-03T04:50:29;15.45;;;2.63;;
44774;SDS011;31340;51.402;0.016;2023-04-03T04:52:57;8.40;;;2.80;;
44774;SDS011;31340;51.402;0.016;2023-04-03T04:55:25;10.63;;;3.28;;
44774;SDS011;31340;51.402;0.016;2023-04-03T04:57:53;10.63;;;2.97;;
44774;SDS011;31340;51.402;0.016;2023-04-03T05:00:21;13.85;;;3.47;;
44774;SDS011;31340;51.402;0.016;2023-04-03T05:02:49;9.48;;;2.67;;
44774;SDS011;31340;51.402;0.016;2023-04-03T05:05:18;10.70;;;3.05;;
44774;SDS011;31340;51.402;0.016;2023-04-03T05:07:47;12.45;;;3.08;;
44774;SDS011;31340;51.402;0.016;2023-04-03T05:10:16;9.43;;;3.30;;
44774;SDS011;31340;51.402;0.016;2023-04-03T05:12:45;10.93;;;2.92;;
44774;SDS011;31340;51.402;0.016;2023-04-03T05:15:13;20.10;;;3.15;;
44774;SDS011;31340;51.402;0.016;2023-04-03T05:17:40;13.85;;;3.05;;
44774;SDS011;31340;51.402;0.016;2023-04-03T05:22:41;12.18;;;3.25;;
44774;SDS011;31340;51.402;0.016;2023-04-03T05:25:09;11.57;;;3.33;;
44774;SDS011;31340;51.402;0.016;2023-04-03T05:27:38;12.27;;;3.40;;
44774;SDS011;31340;51.402;0.016;2023-04-03T05:30:06;10.68;;;3.28;;
44774;SDS011;31340;51.402;0.016;2023-04-03T05:32:36;17.80;;;4.17;;
44774;SDS011;31340;51.402;0.016;2023-04-03T05:35:14;10.32;;;3.22;;
44774;SDS011;31340;51.402;0.016;2023-04-03T05:37:44;10.55;;;2.95;;
44774;SDS011;31340;51.402;0.016;2023-04-03T05:40:15;10.32;;;2.92;;
44774;SDS011;31340;51.402;0.016;2023-04-03T05:42:46;11.43;;;3.30;;
44774;SDS011;31340;51.402;0.016;2023-04-03T05:45:16;14.30;;;2.67;;
44774;SDS011;31340;51.402;0.016;2023-04-03T05:47:44;13.10;;;3.78;;
44774;SDS011;31340;51.402;0.016;2023-04-03T05:50:11;14.25;;;2.75;;
44774;SDS011;31340;51.402;0.016;2023-04-03T05:52:40;11.18;;;3.58;;
44774;SDS011;31340;51.402;0.016;2023-04-03T05:55:12;8.35;;;3.35;;
44774;SDS011;31340;51.402;0.016;2023-04-03T05:57:39;8.23;;;3.10;;
44774;SDS011;31340;51.402;0.016;2023-04-03T06:00:08;13.27;;;3.70;;
44774;SDS011;31340;51.402;0.016;2023-04-03T06:02:48;15.02;;;4.43;;
44774;SDS011;31340;51.402;0.016;2023-04-03T06:05:20;15.07;;;3.05;;
44774;SDS011;31340;51.402;0.016;2023-04-03T06:07:48;16.80;;;3.53;;
44774;SDS011;31340;51.402;0.016;2023-04-03T06:10:17;12.48;;;3.22;;
44774;SDS011;31340;51.402;0.016;2023-04-03T06:12:45;16.80;;;4.18;;
44774;SDS011;31340;51.402;0.016;2023-04-03T06:15:12;15.73;;;4.13;;
44774;SDS011;31340;51.402;0.016;2023-04-03T06:17:40;12.68;;;3.72;;
44774;SDS011;31340;51.402;0.016;2023-04-03T06:20:08;15.98;;;3.65;;
44774;SDS011;31340;51.402;0.016;2023-04-03T06:22:36;16.48;;;4.10;;
44774;SDS011;31340;51.402;0.016;2023-04-03T06:25:04;17.60;;;3.67;;
44774;SDS011;31340;51.402;0.016;2023-04-03T06:27:33;17.63;;;5.53;;
44774;SDS011;31340;51.402;0.016;2023-04-03T06:30:00;13.05;;;3.83;;
44774;SDS011;31340;51.402;0.016;2023-04-03T06:32:28;15.32;;;4.10;;
44774;SDS011;31340;51.402;0.016;2023-04-03T06:34:56;12.50;;;3.70;;
44774;SDS011;31340;51.402;0.016;2023-04-03T06:37:24;12.00;;;3.60;;
44774;SDS011;31340;51.402;0.016;2023-04-03T06:39:55;12.10;;;3.80;;
44774;SDS011;31340;51.402;0.016;2023-04-03T06:42:23;14.77;;;4.30;;
44774;SDS011;31340;51.402;0.016;2023-04-03T06:45:11;14.75;;;3.88;;
44774;SDS011;31340;51.402;0.016;2023-04-03T06:47:39;15.57;;;4.10;;
44774;SDS011;31340;51.402;0.016;2023-04-03T06:50:06;16.77;;;4.00;;
44774;SDS011;31340;51.402;0.016;2023-04-03T06:52:35;13.35;;;4.15;;
44774;SDS011;31340;51.402;0.016;2023-04-03T06:55:03;17.83;;;4.60;;
44774;SDS011;31340;51.402;0.016;2023-04-03T06:57:31;19.33;;;4.50;;
44774;SDS011;31340;51.402;0.016;2023-04-03T06:59:59;13.45;;;4.07;;
44774;SDS011;31340;51.402;0.016;2023-04-03T07:02:26;18.13;;;4.53;;
44774;SDS011;31340;51.402;0.016;2023-04-03T07:04:54;15.60;;;4.10;;
44774;SDS011;31340;51.402;0.016;2023-04-03T07:07:22;13.13;;;4.25;;
44774;SDS011;31340;51.402;0.016;2023-04-03T07:09:49;15.63;;;4.15;;
44774;SDS011;31340;51.402;0.016;2023-04-03T07:12:17;8.15;;;3.85;;
44774;SDS011;31340;51.402;0.016;2023-04-03T07:14:44;13.95;;;4.38;;
44774;SDS011;31340;51.402;0.016;2023-04-03T07:17:11;10.55;;;4.20;;
44774;SDS011;31340;51.402;0.016;2023-04-03T07:19:39;13.18;;;4.30;;
44774;SDS011;31340;51.402;0.016;2023-04-03T07:22:06;12.73;;;4.20;;
44774;SDS011;31340;51.402;0.016;2023-04-03T07:24:34;10.32;;;4.40;;
44774;SDS011;31340;51.402;0.016;2023-04-03T07:27:02;11.77;;;4.18;;
44774;SDS011;31340;51.402;0.016;2023-04-03T07:29:31;14.27;;;4.60;;
44774;SDS011;31340;51.402;0.016;2023-04-03T07:31:59;19.30;;;5.10;;
44774;SDS011;31340;51.402;0.016;2023-04-03T07:34:27;13.57;;;4.88;;
44774;SDS011;31340;51.402;0.016;2023-04-03T07:36:55;20.10;;;5.18;;
44774;SDS011;31340;51.402;0.016;2023-04-03T07:39:23;16.05;;;4.72;;
44774;SDS011;31340;51.402;0.016;2023-04-03T07:41:51;13.40;;;4.18;;
44774;SDS011;31340;51.402;0.016;2023-04-03T07:44:18;13.25;;;4.20;;
44774;SDS011;31340;51.402;0.016;2023-04-03T07:46:46;18.55;;;4.65;;
44774;SDS011;31340;51.402;0.016;2023-04-03T07:49:14;11.82;;;3.90;;
44774;SDS011;31340;51.402;0.016;2023-04-03T07:51:41;10.95;;;3.75;;
44774;SDS011;31340;51.402;0.016;2023-04-03T07:54:09;16.73;;;4.75;;
44774;SDS011;31340;51.402;0.016;2023-04-03T07:56:37;18.55;;;4.90;;
44774;SDS011;31340;51.402;0.016;2023-04-03T07:59:05;14.88;;;5.10;;
44774;SDS011;31340;51.402;0.016;2023-04-03T08:01:33;17.08;;;5.40;;
44774;SDS011;31340;51.402;0.016;2023-04-03T08:04:00;15.35;;;5.55;;
44774;SDS011;31340;51.402;0.016;2023-04-03T08:06:28;15.60;;;5.88;;
44774;SDS011;31340;51.402;0.016;2023-04-03T08:09:13;20.90;;;5.55;;
44774;SDS011;31340;51.402;0.016;2023-04-03T08:11:42;15.10;;;5.20;;
44774;SDS011;31340;51.402;0.016;2023-04-03T08:14:11;14.75;;;5.00;;
44774;SDS011;31340;51.402;0.016;2023-04-03T08:16:44;16.48;;;5.32;;
44774;SDS011;31340;51.402;0.016;2023-04-03T08:19:16;20.58;;;5.90;;
44774;SDS011;31340;51.402;0.016;2023-04-03T08:21:53;22.20;;;5.28;;
44774;SDS011;31340;51.402;0.016;2023-04-03T08:24:21;17.42;;;5.63;;
44774;SDS011;31340;51.402;0.016;2023-04-03T08:26:49;16.73;;;5.43;;
44774;SDS011;31340;51.402;0.016;2023-04-03T08:29:17;15.48;;;5.72;;
44774;SDS011;31340;51.402;0.016;2023-04-03T08:31:44;13.32;;;5.82;;
44774;SDS011;31340;51.402;0.016;2023-04-03T08:34:12;21.10;;;5.90;;
44774;SDS011;31340;51.402;0.016;2023-04-03T08:36:40;15.50;;;6.00;;
44774;SDS011;31340;51.402;0.016;2023-04-03T08:39:07;21.70;;;6.65;;
44774;SDS011;31340;51.402;0.016;2023-04-03T08:41:36;18.65;;;5.82;;
44774;SDS011;31340;51.402;0.016;2023-04-03T08:51:11;17.35;;;5.72;;
44774;SDS011;31340;51.402;0.016;2023-04-03T08:53:48;20.10;;;6.68;;
44774;SDS011;31340;51.402;0.016;2023-04-03T08:56:27;16.55;;;5.30;;
44774;SDS011;31340;51.402;0.016;2023-04-03T08:58:58;20.90;;;6.65;;
44774;SDS011;31340;51.402;0.016;2023-04-03T09:01:36;23.63;;;6.65;;
44774;SDS011;31340;51.402;0.016;2023-04-03T09:04:09;20.35;;;6.93;;
44774;SDS011;31340;51.402;0.016;2023-04-03T09:06:46;17.75;;;7.15;;
44774;SDS011;31340;51.402;0.016;2023-04-03T09:09:36;19.98;;;7.38;;
44774;SDS011;31340;51.402;0.016;2023-04-03T09:12:27;21.05;;;8.38;;
44774;SDS011;31340;51.402;0.016;2023-04-03T09:18:12;20.85;;;7.85;;
44774;SDS011;31340;51.402;0.016;2023-04-03T09:23:22;20.65;;;9.10;;
44774;SDS011;31340;51.402;0.016;2023-04-03T09:26:09;22.75;;;8.10;;
44774;SDS011;31340;51.402;0.016;2023-04-03T09:28:44;22.73;;;7.50;;
44774;SDS011;31340;51.402;0.016;2023-04-03T09:31:24;18.85;;;7.68;;
44774;SDS011;31340;51.402;0.016;2023-04-03T09:33:59;18.30;;;7.25;;
44774;SDS011;31340;51.402;0.016;2023-04-03T09:36:45;16.35;;;7.60;;
44774;SDS011;31340;51.402;0.016;2023-04-03T09:39:16;19.65;;;7.72;;
44774;SDS011;31340;51.402;0.016;2023-04-03T09:41:57;14.38;;;6.82;;
44774;SDS011;31340;51.402;0.016;2023-04-03T09:44:31;19.40;;;8.20;;
44774;SDS011;31340;51.402;0.016;2023-04-03T09:47:16;18.73;;;8.68;;
44774;SDS011;31340;51.402;0.016;2023-04-03T09:52:42;15.77;;;8.00;;
44774;SDS011;31340;51.402;0.016;2023-04-03T09:55:24;12.88;;;7.18;;
44774;SDS011;31340;51.402;0.016;2023-04-03T09:57:57;17.60;;;7.32;;
44774;SDS011;31340;51.402;0.016;2023-04-03T10:00:33;15.38;;;8.10;;
44774;SDS011;31340;51.402;0.016;2023-04-03T10:03:05;15.90;;;6.65;;
44774;SDS011;31340;51.402;0.016;2023-04-03T10:05:52;17.27;;;7.05;;
44774;SDS011;31340;51.402;0.016;2023-04-03T10:08:24;10.52;;;6.07;;
44774;SDS011;31340;51.402;0.016;2023-04-03T10:13:57;15.52;;;6.00;;
44774;SDS011;31340;51.402;0.016;2023-04-03T10:16:35;14.38;;;6.10;;
44774;SDS011;31340;51.402;0.016;2023-04-03T10:38:33;10.98;;;4.90;;
44774;SDS011;31340;51.402;0.016;2023-04-03T10:46:53;10.27;;;5.13;;
44774;SDS011;31340;51.402;0.016;2023-04-03T10:52:31;8.25;;;4.47;;
44774;SDS011;31340;51.402;0.016;2023-04-03T10:55:31;10.02;;;4.70;;
44774;SDS011;31340;51.402;0.016;2023-04-03T10:58:01;7.68;;;4.35;;
44774;SDS011;31340;51.402;0.016;2023-04-03T11:00:42;9.65;;;4.25;;
44774;SDS011;31340;51.402;0.016;2023-04-03T11:03:13;7.47;;;4.47;;
44774;SDS011;31340;51.402;0.016;2023-04-03T11:05:49;13.25;;;4.75;;
44774;SDS011;31340;51.402;0.016;2023-04-03T11:08:26;8.90;;;4.30;;
44774;SDS011;31340;51.402;0.016;2023-04-03T11:10:57;11.50;;;4.43;;
44774;SDS011;31340;51.402;0.016;2023-04-03T11:13:32;9.50;;;4.38;;
44774;SDS011;31340;51.402;0.016;2023-04-03T11:16:24;10.95;;;4.05;;
44774;SDS011;31340;51.402;0.016;2023-04-03T11:21:33;7.90;;;3.72;;
44774;SDS011;31340;51.402;0.016;2023-04-03T11:24:09;7.60;;;3.33;;
44774;SDS011;31340;51.402;0.016;2023-04-03T11:27:08;6.78;;;3.75;;
44774;SDS011;31340;51.402;0.016;2023-04-03T11:29:50;11.60;;;3.40;;
44774;SDS011;31340;51.402;0.016;2023-04-03T11:35:10;5.97;;;3.72;;
44774;SDS011;31340;51.402;0.016;2023-04-03T11:37:39;8.85;;;3.40;;
44774;SDS011;31340;51.402;0.016;2023-04-03T11:42:48;5.03;;;2.80;;
44774;SDS011;31340;51.402;0.016;2023-04-03T11:47:50;8.68;;;3.80;;
44774;SDS011;31340;51.402;0.016;2023-04-03T12:16:19;7.00;;;4.03;;
44774;SDS011;31340;51.402;0.016;2023-04-03T12:21:23;10.13;;;5.18;;
44774;SDS011;31340;51.402;0.016;2023-04-03T12:26:47;8.48;;;4.07;;
44774;SDS011;31340;51.402;0.016;2023-04-03T12:32:15;7.95;;;4.72;;
44774;SDS011;31340;51.402;0.016;2023-04-03T12:35:08;8.30;;;4.13;;
44774;SDS011;31340;51.402;0.016;2023-04-03T12:46:33;7.38;;;3.95;;
44774;SDS011;31340;51.402;0.016;2023-04-03T12:49:12;7.82;;;3.33;;
44774;SDS011;31340;51.402;0.016;2023-04-03T12:51:50;6.05;;;3.30;;
44774;SDS011;31340;51.402;0.016;2023-04-03T12:57:10;6.90;;;3.20;;
44774;SDS011;31340;51.402;0.016;2023-04-03T12:59:39;5.80;;;2.80;;
44774;SDS011;31340;51.402;0.016;2023-04-03T13:02:14;7.25;;;2.75;;
44774;SDS011;31340;51.402;0.016;2023-04-03T13:04:51;6.03;;;3.55;;
44774;SDS011;31340;51.402;0.016;2023-04-03T13:12:51;6.75;;;2.90;;
44774;SDS011;31340;51.402;0.016;2023-04-03T13:15:28;4.30;;;2.33;;
44774;SDS011;31340;51.402;0.016;2023-04-03T13:18:26;5.45;;;2.88;;
44774;SDS011;31340;51.402;0.016;2023-04-03T13:20:57;9.55;;;2.88;;
44774;SDS011;31340;51.402;0.016;2023-04-03T13:23:33;6.45;;;2.75;;
44774;SDS011;31340;51.402;0.016;2023-04-03T13:26:05;4.68;;;2.40;;
44774;SDS011;31340;51.402;0.016;2023-04-03T13:28:34;7.55;;;2.65;;
44774;SDS011;31340;51.402;0.016;2023-04-03T13:31:47;6.43;;;2.63;;
44774;SDS011;31340;51.402;0.016;2023-04-03T13:34:10;4.57;;;2.60;;
44774;SDS011;31340;51.402;0.016;2023-04-03T13:36:40;6.28;;;2.78;;
44774;SDS011;31340;51.402;0.016;2023-04-03T13:41:54;7.93;;;2.85;;
44774;SDS011;31340;51.402;0.016;2023-04-03T13:44:30;5.47;;;2.30;;
44774;SDS011;31340;51.402;0.016;2023-04-03T13:49:57;3.10;;;2.47;;
44774;SDS011;31340;51.402;0.016;2023-04-03T13:55:17;5.93;;;2.90;;
44774;SDS011;31340;51.402;0.016;2023-04-03T14:00:55;5.65;;;2.63;;
44774;SDS011;31340;51.402;0.016;2023-04-03T14:03:32;4.80;;;2.45;;
44774;SDS011;31340;51.402;0.016;2023-04-03T14:06:08;7.22;;;3.20;;
44774;SDS011;31340;51.402;0.016;2023-04-03T14:08:40;6.07;;;2.85;;
44774;SDS011;31340;51.402;0.016;2023-04-03T14:11:14;6.28;;;2.92;;
44774;SDS011;31340;51.402;0.016;2023-04-03T14:13:46;7.78;;;3.65;;
44774;SDS011;31340;51.402;0.016;2023-04-03T14:16:21;8.48;;;4.15;;
44774;SDS011;31340;51.402;0.016;2023-04-03T14:18:50;7.45;;;3.50;;
44774;SDS011;31340;51.402;0.016;2023-04-03T14:21:20;7.70;;;3.60;;
44774;SDS011;31340;51.402;0.016;2023-04-03T14:23:48;8.38;;;3.63;;
44774;SDS011;31340;51.402;0.016;2023-04-03T14:26:18;7.88;;;3.53;;
44774;SDS011;31340;51.402;0.016;2023-04-03T14:28:49;6.78;;;3.97;;
44774;SDS011;31340;51.402;0.016;2023-04-03T14:31:20;7.80;;;4.10;;
44774;SDS011;31340;51.402;0.016;2023-04-03T14:33:48;7.45;;;4.13;;
44774;SDS011;31340;51.402;0.016;2023-04-03T14:36:18;8.77;;;4.30;;
44774;SDS011;31340;51.402;0.016;2023-04-03T14:38:49;10.05;;;4.80;;
44774;SDS011;31340;51.402;0.016;2023-04-03T14:41:20;7.53;;;4.03;;
44774;SDS011;31340;51.402;0.016;2023-04-03T14:43:51;8.85;;;4.40;;
44774;SDS011;31340;51.402;0.016;2023-04-03T14:46:30;11.82;;;5.25;;
44774;SDS011;31340;51.402;0.016;2023-04-03T14:49:21;10.23;;;5.20;;
44774;SDS011;31340;51.402;0.016;2023-04-03T14:51:52;7.68;;;4.97;;
44774;SDS011;31340;51.402;0.016;2023-04-03T14:54:21;7.30;;;4.22;;
44774;SDS011;31340;51.402;0.016;2023-04-03T14:56:55;9.00;;;4.50;;
44774;SDS011;31340;51.402;0.016;2023-04-03T14:59:24;7.38;;;4.22;;
44774;SDS011;31340;51.402;0.016;2023-04-03T15:01:53;7.85;;;4.75;;
44774;SDS011;31340;51.402;0.016;2023-04-03T15:04:21;12.75;;;4.88;;
44774;SDS011;31340;51.402;0.016;2023-04-03T15:06:49;9.60;;;5.07;;
44774;SDS011;31340;51.402;0.016;2023-04-03T15:09:23;11.32;;;5.80;;
44774;SDS011;31340;51.402;0.016;2023-04-03T15:11:53;10.38;;;5.50;;
44774;SDS011;31340;51.402;0.016;2023-04-03T15:14:23;12.30;;;5.28;;
44774;SDS011;31340;51.402;0.016;2023-04-03T15:17:06;7.63;;;5.05;;
44774;SDS011;31340;51.402;0.016;2023-04-03T15:19:40;9.32;;;4.75;;
44774;SDS011;31340;51.402;0.016;2023-04-03T15:22:14;14.52;;;4.43;;
44774;SDS011;31340;51.402;0.016;2023-04-03T15:24:43;8.02;;;4.57;;
44774;SDS011;31340;51.402;0.016;2023-04-03T15:27:15;9.43;;;5.00;;
44774;SDS011;31340;51.402;0.016;2023-04-03T15:29:43;7.55;;;3.80;;
44774;SDS011;31340;51.402;0.016;2023-04-03T15:32:12;8.98;;;4.47;;
44774;SDS011;31340;51.402;0.016;2023-04-03T15:34:40;9.02;;;4.30;;
44774;SDS011;31340;51.402;0.016;2023-04-03T15:37:08;6.20;;;3.78;;
44774;SDS011;31340;51.402;0.016;2023-04-03T15:39:35;7.80;;;3.92;;
44774;SDS011;31340;51.402;0.016;2023-04-03T15:42:03;4.45;;;3.20;;
44774;SDS011;31340;51.402;0.016;2023-04-03T15:44:34;8.07;;;3.40;;
44774;SDS011;31340;51.402;0.016;2023-04-03T15:49:32;5.35;;;3.10;;
44774;SDS011;31340;51.402;0.016;2023-04-03T15:52:01;6.18;;;3.13;;
44774;SDS011;31340;51.402;0.016;2023-04-03T15:54:29;5.03;;;2.63;;
44774;SDS011;31340;51.402;0.016;2023-04-03T15:56:57;6.32;;;2.97;;
44774;SDS011;31340;51.402;0.016;2023-04-03T15:59:25;6.45;;;3.20;;
44774;SDS011;31340;51.402;0.016;2023-04-03T16:01:53;5.35;;;3.10;;
44774;SDS011;31340;51.402;0.016;2023-04-03T16:04:24;5.32;;;3.38;;
44774;SDS011;31340;51.402;0.016;2023-04-03T16:06:54;9.07;;;4.10;;
44774;SDS011;31340;51.402;0.016;2023-04-03T16:09:21;7.90;;;3.85;;
44774;SDS011;31340;51.402;0.016;2023-04-03T16:11:49;8.05;;;4.78;;
44774;SDS011;31340;51.402;0.016;2023-04-03T16:14:18;6.47;;;3.90;;
44774;SDS011;31340;51.402;0.016;2023-04-03T16:16:46;6.88;;;3.50;;
44774;SDS011;31340;51.402;0.016;2023-04-03T16:19:14;9.05;;;4.40;;
44774;SDS011;31340;51.402;0.016;2023-04-03T16:21:42;6.13;;;3.40;;
44774;SDS011;31340;51.402;0.016;2023-04-03T16:24:13;6.25;;;3.10;;
44774;SDS011;31340;51.402;0.016;2023-04-03T16:26:44;6.72;;;3.40;;
44774;SDS011;31340;51.402;0.016;2023-04-03T16:29:14;7.72;;;3.67;;
44774;SDS011;31340;51.402;0.016;2023-04-03T16:31:42;7.97;;;4.25;;
44774;SDS011;31340;51.402;0.016;2023-04-03T16:34:09;6.93;;;4.10;;
44774;SDS011;31340;51.402;0.016;2023-04-03T16:36:41;9.35;;;4.22;;
44774;SDS011;31340;51.402;0.016;2023-04-03T16:39:09;9.38;;;3.40;;
44774;SDS011;31340;51.402;0.016;2023-04-03T16:41:36;8.13;;;3.13;;
44774;SDS011;31340;51.402;0.016;2023-04-03T16:44:04;8.48;;;4.18;;
44774;SDS011;31340;51.402;0.016;2023-04-03T16:46:34;8.17;;;3.73;;
44774;SDS011;31340;51.402;0.016;2023-04-03T16:49:03;7.22;;;3.38;;
44774;SDS011;31340;51.402;0.016;2023-04-03T16:51:31;9.93;;;4.03;;
44774;SDS011;31340;51.402;0.016;2023-04-03T16:54:01;12.95;;;4.72;;
44774;SDS011;31340;51.402;0.016;2023-04-03T16:56:30;8.07;;;4.63;;
44774;SDS011;31340;51.402;0.016;2023-04-03T16:58:58;7.97;;;3.50;;
44774;SDS011;31340;51.402;0.016;2023-04-03T17:01:26;8.25;;;3.33;;
44774;SDS011;31340;51.402;0.016;2023-04-03T17:03:54;7.05;;;2.97;;
44774;SDS011;31340;51.402;0.016;2023-04-03T17:06:22;7.25;;;3.35;;
44774;SDS011;31340;51.402;0.016;2023-04-03T17:08:51;6.22;;;2.58;;
44774;SDS011;31340;51.402;0.016;2023-04-03T17:11:40;6.78;;;3.00;;
44774;SDS011;31340;51.402;0.016;2023-04-03T17:16:38;6.88;;;3.08;;